createdAt,value
2018-06-28T00:00:44.075Z,857.71
2018-06-28T00:01:43.950Z,857.67
2018-06-28T00:02:43.825Z,857.69
2018-06-28T00:03:43.698Z,857.71
2018-06-28T00:04:43.574Z,857.68
2018-06-28T00:05:43.446Z,857.65
2018-06-28T00:06:43.323Z,857.72
2018-06-28T00:07:43.199Z,857.70
2018-06-28T00:08:43.085Z,857.70
2018-06-28T00:09:42.946Z,857.69
2018-06-28T00:10:42.821Z,857.71
2018-06-28T00:11:42.693Z,857.72
2018-06-28T00:12:42.568Z,857.70
2018-06-28T00:13:42.448Z,857.67
2018-06-28T00:14:42.318Z,857.68
2018-06-28T00:15:42.194Z,857.65
2018-06-28T00:16:42.066Z,857.68
2018-06-28T00:17:41.940Z,857.63
2018-06-28T00:18:41.817Z,857.66
2018-06-28T00:19:41.693Z,857.65
2018-06-28T00:20:41.566Z,857.67
2018-06-28T00:21:41.440Z,857.63
2018-06-28T00:22:41.314Z,857.62
2018-06-28T00:23:41.190Z,857.59
2018-06-28T00:24:41.063Z,857.60
2018-06-28T00:25:40.938Z,857.60
2018-06-28T00:26:40.812Z,857.55
2018-06-28T00:27:40.685Z,857.59
2018-06-28T00:28:40.562Z,857.59
2018-06-28T00:29:40.438Z,857.59
2018-06-28T00:30:40.311Z,857.56
2018-06-28T00:31:40.184Z,857.53
2018-06-28T00:32:40.058Z,857.57
2018-06-28T00:33:39.934Z,857.57
2018-06-28T00:34:39.809Z,857.57
2018-06-28T00:35:39.683Z,857.53
2018-06-28T00:36:39.557Z,857.51
2018-06-28T00:37:39.438Z,857.58
2018-06-28T00:38:39.307Z,857.56
2018-06-28T00:39:39.180Z,857.52
2018-06-28T00:40:39.053Z,857.53
2018-06-28T00:41:38.929Z,857.52
2018-06-28T00:42:38.805Z,857.50
2018-06-28T00:43:38.695Z,857.49
2018-06-28T00:44:38.552Z,857.47
2018-06-28T00:45:38.430Z,857.48
2018-06-28T00:46:38.303Z,857.50
2018-06-28T00:47:38.182Z,857.46
2018-06-28T00:48:38.050Z,857.46
2018-06-28T00:49:37.936Z,857.41
2018-06-28T00:50:37.798Z,857.43
2018-06-28T00:51:37.673Z,857.41
2018-06-28T00:52:37.546Z,857.45
2018-06-28T00:53:37.420Z,857.44
2018-06-28T00:54:37.297Z,857.46
2018-06-28T00:55:37.168Z,857.42
2018-06-28T00:56:37.043Z,857.37
2018-06-28T00:57:36.920Z,857.41
2018-06-28T00:58:36.792Z,857.42
2018-06-28T00:59:36.666Z,857.37
2018-06-28T01:00:36.541Z,857.37
2018-06-28T01:01:36.416Z,857.31
2018-06-28T01:02:36.290Z,857.31
2018-06-28T01:03:36.161Z,857.25
2018-06-28T01:04:36.037Z,857.27
2018-06-28T01:05:35.913Z,857.23
2018-06-28T01:06:35.792Z,857.29
2018-06-28T01:07:35.661Z,857.27
2018-06-28T01:08:35.537Z,857.27
2018-06-28T01:09:35.411Z,857.21
2018-06-28T01:10:35.283Z,857.23
2018-06-28T01:11:35.159Z,857.20
2018-06-28T01:12:35.040Z,857.20
2018-06-28T01:13:34.906Z,857.15
2018-06-28T01:14:34.783Z,857.16
2018-06-28T01:15:34.657Z,857.14
2018-06-28T01:16:34.530Z,857.14
2018-06-28T01:17:34.406Z,857.12
2018-06-28T01:18:34.340Z,857.11
2018-06-28T01:19:34.154Z,857.09
2018-06-28T01:20:34.029Z,857.06
2018-06-28T01:21:33.904Z,857.07
2018-06-28T01:22:33.776Z,857.07
2018-06-28T01:23:33.652Z,857.09
2018-06-28T01:24:33.528Z,857.02
2018-06-28T01:25:33.401Z,856.99
2018-06-28T01:26:33.274Z,857.02
2018-06-28T01:27:33.148Z,856.98
2018-06-28T01:28:33.021Z,856.98
2018-06-28T01:29:32.897Z,856.94
2018-06-28T01:30:32.775Z,856.95
2018-06-28T01:31:32.648Z,856.92
2018-06-28T01:32:32.520Z,856.90
2018-06-28T01:33:32.395Z,856.89
2018-06-28T01:34:32.269Z,856.88
2018-06-28T01:35:32.144Z,856.89
2018-06-28T01:36:32.016Z,856.86
2018-06-28T01:37:31.894Z,856.84
2018-06-28T01:38:31.768Z,856.87
2018-06-28T01:39:31.639Z,856.79
2018-06-28T01:40:31.512Z,856.78
2018-06-28T01:41:31.390Z,856.75
2018-06-28T01:42:31.264Z,856.74
2018-06-28T01:43:31.141Z,856.73
2018-06-28T01:44:31.010Z,856.72
2018-06-28T01:45:30.889Z,856.72
2018-06-28T01:46:30.759Z,856.74
2018-06-28T01:47:30.631Z,856.74
2018-06-28T01:48:30.508Z,856.77
2018-06-28T01:49:30.381Z,856.80
2018-06-28T01:50:30.260Z,856.77
2018-06-28T01:51:30.133Z,856.77
2018-06-28T01:52:30.002Z,856.77
2018-06-28T01:53:29.879Z,856.79
2018-06-28T01:54:29.754Z,856.77
2018-06-28T01:55:29.626Z,856.75
2018-06-28T01:56:29.499Z,856.75
2018-06-28T01:57:29.381Z,856.71
2018-06-28T01:58:29.248Z,856.71
2018-06-28T01:59:29.121Z,856.74
2018-06-28T02:00:28.996Z,856.73
2018-06-28T02:01:28.870Z,856.72
2018-06-28T02:02:28.742Z,856.71
2018-06-28T02:03:28.617Z,856.67
2018-06-28T02:04:28.493Z,856.71
2018-06-28T02:05:28.371Z,856.74
2018-06-28T02:06:28.351Z,856.72
2018-06-28T02:07:28.115Z,856.70
2018-06-28T02:08:27.991Z,856.67
2018-06-28T02:09:27.861Z,856.68
2018-06-28T02:10:27.740Z,856.66
2018-06-28T02:11:27.610Z,856.65
2018-06-28T02:12:27.484Z,856.65
2018-06-28T02:13:27.358Z,856.64
2018-06-28T02:14:27.231Z,856.66
2018-06-28T02:15:27.107Z,856.69
2018-06-28T02:16:26.979Z,856.66
2018-06-28T02:17:26.857Z,856.67
2018-06-28T02:18:26.728Z,856.66
2018-06-28T02:19:26.606Z,856.69
2018-06-28T02:20:26.481Z,856.66
2018-06-28T02:21:26.350Z,856.67
2018-06-28T02:22:26.224Z,856.64
2018-06-28T02:23:26.110Z,856.64
2018-06-28T02:24:25.974Z,856.65
2018-06-28T02:25:25.846Z,856.62
2018-06-28T02:26:25.720Z,856.60
2018-06-28T02:27:25.595Z,856.59
2018-06-28T02:28:25.475Z,856.55
2018-06-28T02:29:25.342Z,856.57
2018-06-28T02:30:25.218Z,856.56
2018-06-28T02:31:25.092Z,856.55
2018-06-28T02:32:24.966Z,856.54
2018-06-28T02:33:24.840Z,856.53
2018-06-28T02:34:24.713Z,856.50
2018-06-28T02:35:24.588Z,856.50
2018-06-28T02:36:24.460Z,856.48
2018-06-28T02:37:24.335Z,856.46
2018-06-28T02:38:24.207Z,856.47
2018-06-28T02:39:24.080Z,856.45
2018-06-28T02:40:23.970Z,856.43
2018-06-28T02:41:23.828Z,856.42
2018-06-28T02:42:23.703Z,856.44
2018-06-28T02:43:23.574Z,856.43
2018-06-28T02:44:23.452Z,856.43
2018-06-28T02:45:23.323Z,856.47
2018-06-28T02:46:23.200Z,856.46
2018-06-28T02:47:23.068Z,856.47
2018-06-28T02:48:22.943Z,856.47
2018-06-28T02:49:22.818Z,856.44
2018-06-28T02:50:22.693Z,856.41
2018-06-28T02:51:22.565Z,856.41
2018-06-28T02:52:22.442Z,856.41
2018-06-28T02:53:22.314Z,856.38
2018-06-28T02:54:22.189Z,856.42
2018-06-28T02:55:22.061Z,856.41
2018-06-28T02:56:21.933Z,856.42
2018-06-28T02:57:21.811Z,856.42
2018-06-28T02:58:21.679Z,856.41
2018-06-28T02:59:21.562Z,856.49
2018-06-28T03:00:21.431Z,856.50
2018-06-28T03:01:21.349Z,856.48
2018-06-28T03:02:21.175Z,856.47
2018-06-28T03:03:21.046Z,856.47
2018-06-28T03:04:20.920Z,856.42
2018-06-28T03:05:20.795Z,856.48
2018-06-28T03:06:20.669Z,856.48
2018-06-28T03:07:20.542Z,856.51
2018-06-28T03:08:20.414Z,856.51
2018-06-28T03:09:20.291Z,856.50
2018-06-28T03:10:20.165Z,856.45
2018-06-28T03:11:20.037Z,856.49
2018-06-28T03:12:19.911Z,856.52
2018-06-28T03:13:19.783Z,856.50
2018-06-28T03:14:19.657Z,856.54
2018-06-28T03:15:19.532Z,856.46
2018-06-28T03:16:19.406Z,856.48
2018-06-28T03:17:19.278Z,856.47
2018-06-28T03:18:19.151Z,856.46
2018-06-28T03:19:19.024Z,856.48
2018-06-28T03:20:18.896Z,856.49
2018-06-28T03:21:18.772Z,856.54
2018-06-28T03:22:18.645Z,856.53
2018-06-28T03:23:18.517Z,856.59
2018-06-28T03:24:18.392Z,856.56
2018-06-28T03:25:18.274Z,856.54
2018-06-28T03:26:18.140Z,856.57
2018-06-28T03:27:18.014Z,856.59
2018-06-28T03:28:17.887Z,856.61
2018-06-28T03:29:17.761Z,856.58
2018-06-28T03:30:17.635Z,856.58
2018-06-28T03:31:17.508Z,856.58
2018-06-28T03:32:17.380Z,856.60
2018-06-28T03:33:17.256Z,856.56
2018-06-28T03:34:17.129Z,856.55
2018-06-28T03:35:17.009Z,856.58
2018-06-28T03:36:16.874Z,856.55
2018-06-28T03:37:16.750Z,856.56
2018-06-28T03:38:16.621Z,856.61
2018-06-28T03:39:16.496Z,856.60
2018-06-28T03:40:16.370Z,856.59
2018-06-28T03:41:16.245Z,856.55
2018-06-28T03:42:16.116Z,856.55
2018-06-28T03:43:15.991Z,856.54
2018-06-28T03:44:15.866Z,856.56
2018-06-28T03:45:15.739Z,856.54
2018-06-28T03:46:15.615Z,856.55
2018-06-28T03:47:15.486Z,856.52
2018-06-28T03:48:15.362Z,856.55
2018-06-28T03:49:15.234Z,856.54
2018-06-28T03:50:15.108Z,856.50
2018-06-28T03:51:14.985Z,856.51
2018-06-28T03:52:14.852Z,856.51
2018-06-28T03:53:14.729Z,856.51
2018-06-28T03:54:14.610Z,856.56
2018-06-28T03:55:14.476Z,856.53
2018-06-28T03:56:14.353Z,856.54
2018-06-28T03:57:14.222Z,856.52
2018-06-28T03:58:14.096Z,856.53
2018-06-28T03:59:13.971Z,856.51
2018-06-28T04:00:13.859Z,856.50
2018-06-28T04:01:13.718Z,856.46
2018-06-28T04:02:13.590Z,856.50
2018-06-28T04:03:13.466Z,856.45
2018-06-28T04:04:13.336Z,856.48
2018-06-28T04:05:13.211Z,856.45
2018-06-28T04:06:13.087Z,856.42
2018-06-28T04:07:12.957Z,856.41
2018-06-28T04:08:12.832Z,856.38
2018-06-28T04:09:12.705Z,856.40
2018-06-28T04:10:12.578Z,856.39
2018-06-28T04:11:12.450Z,856.40
2018-06-28T04:12:12.327Z,856.37
2018-06-28T04:13:12.196Z,856.40
2018-06-28T04:14:12.070Z,856.40
2018-06-28T04:15:12.100Z,856.39
2018-06-28T04:16:11.816Z,856.39
2018-06-28T04:17:11.703Z,856.34
2018-06-28T04:18:11.562Z,856.31
2018-06-28T04:19:11.453Z,856.38
2018-06-28T04:20:11.311Z,856.36
2018-06-28T04:21:11.184Z,856.33
2018-06-28T04:22:11.068Z,856.37
2018-06-28T04:23:10.940Z,856.41
2018-06-28T04:24:10.804Z,856.42
2018-06-28T04:25:10.678Z,856.43
2018-06-28T04:26:10.553Z,856.45
2018-06-28T04:27:10.425Z,856.37
2018-06-28T04:28:10.305Z,856.38
2018-06-28T04:29:10.196Z,856.45
2018-06-28T04:30:10.046Z,856.44
2018-06-28T04:31:09.922Z,856.47
2018-06-28T04:32:09.800Z,856.42
2018-06-28T04:33:09.668Z,856.42
2018-06-28T04:34:09.544Z,856.44
2018-06-28T04:35:09.416Z,856.45
2018-06-28T04:36:09.287Z,856.48
2018-06-28T04:37:09.161Z,856.50
2018-06-28T04:38:09.039Z,856.44
2018-06-28T04:39:08.908Z,856.46
2018-06-28T04:40:08.782Z,856.44
2018-06-28T04:41:08.659Z,856.39
2018-06-28T04:42:08.531Z,856.41
2018-06-28T04:43:08.456Z,856.39
2018-06-28T04:44:08.464Z,856.43
2018-06-28T04:45:08.157Z,856.41
2018-06-28T04:46:08.029Z,856.41
2018-06-28T04:47:07.903Z,856.39
2018-06-28T04:48:07.775Z,856.42
2018-06-28T04:49:07.648Z,856.42
2018-06-28T04:50:07.523Z,856.41
2018-06-28T04:51:07.804Z,856.42
2018-06-28T04:52:07.342Z,856.40
2018-06-28T04:53:08.237Z,856.39
2018-06-28T04:54:07.025Z,856.36
2018-06-28T04:55:06.897Z,856.39
2018-06-28T04:56:06.772Z,856.38
2018-06-28T04:57:06.646Z,856.37
2018-06-28T04:58:06.523Z,856.38
2018-06-28T04:59:06.395Z,856.30
2018-06-28T05:00:06.272Z,856.29
2018-06-28T05:01:06.142Z,856.29
2018-06-28T05:02:06.017Z,856.31
2018-06-28T05:03:05.892Z,856.34
2018-06-28T05:04:05.770Z,856.36
2018-06-28T05:05:05.640Z,856.35
2018-06-28T05:06:05.518Z,856.34
2018-06-28T05:07:05.424Z,856.30
2018-06-28T05:08:05.268Z,856.30
2018-06-28T05:09:05.146Z,856.29
2018-06-28T05:10:05.020Z,856.26
2018-06-28T05:11:04.893Z,856.30
2018-06-28T05:12:04.764Z,856.28
2018-06-28T05:13:04.645Z,856.27
2018-06-28T05:14:04.517Z,856.30
2018-06-28T05:15:04.388Z,856.31
2018-06-28T05:16:04.266Z,856.31
2018-06-28T05:17:04.182Z,856.33
2018-06-28T05:18:04.016Z,856.35
2018-06-28T05:19:03.892Z,856.32
2018-06-28T05:20:03.764Z,856.31
2018-06-28T05:21:03.640Z,856.27
2018-06-28T05:22:03.514Z,856.29
2018-06-28T05:23:03.388Z,856.31
2018-06-28T05:24:03.267Z,856.25
2018-06-28T05:25:03.143Z,856.24
2018-06-28T05:26:03.014Z,856.23
2018-06-28T05:27:02.891Z,856.24
2018-06-28T05:28:02.765Z,856.18
2018-06-28T05:29:02.685Z,856.21
2018-06-28T05:30:02.518Z,856.16
2018-06-28T05:31:02.391Z,856.19
2018-06-28T05:32:02.270Z,856.19
2018-06-28T05:33:02.141Z,856.18
2018-06-28T05:34:02.026Z,856.18
2018-06-28T05:35:01.892Z,856.21
2018-06-28T05:36:01.768Z,856.18
2018-06-28T05:37:01.644Z,856.17
2018-06-28T05:38:01.520Z,856.20
2018-06-28T05:39:01.396Z,856.23
2018-06-28T05:40:02.278Z,856.22
2018-06-28T05:41:01.144Z,856.20
2018-06-28T05:42:01.019Z,856.22
2018-06-28T05:43:00.897Z,856.22
2018-06-28T05:44:00.772Z,856.21
2018-06-28T05:45:00.650Z,856.17
2018-06-28T05:46:00.522Z,856.16
2018-06-28T05:47:00.408Z,856.19
2018-06-28T05:48:00.271Z,856.20
2018-06-28T05:49:00.150Z,856.23
2018-06-28T05:50:00.045Z,856.21
2018-06-28T05:50:59.900Z,856.20
2018-06-28T05:51:59.776Z,856.14
2018-06-28T05:52:59.650Z,856.16
2018-06-28T05:53:59.561Z,856.15
2018-06-28T05:54:59.404Z,856.17
2018-06-28T05:55:59.278Z,856.15
2018-06-28T05:56:59.155Z,856.17
2018-06-28T05:57:59.030Z,856.18
2018-06-28T05:58:58.907Z,856.15
2018-06-28T05:59:58.781Z,856.17
2018-06-28T06:00:58.659Z,856.17
2018-06-28T06:01:58.534Z,856.18
2018-06-28T06:02:58.412Z,856.15
2018-06-28T06:04:00.290Z,856.16
2018-06-28T06:04:58.167Z,856.14
2018-06-28T06:05:58.039Z,856.21
2018-06-28T06:06:57.912Z,856.20
2018-06-28T06:07:57.788Z,856.20
2018-06-28T06:08:57.664Z,856.18
2018-06-28T06:09:57.541Z,856.23
2018-06-28T06:10:57.418Z,856.19
2018-06-28T06:11:57.296Z,856.18
2018-06-28T06:12:57.178Z,856.16
2018-06-28T06:13:57.046Z,856.15
2018-06-28T06:14:56.923Z,856.20
2018-06-28T06:15:56.797Z,856.16
2018-06-28T06:16:56.675Z,856.17
2018-06-28T06:17:56.549Z,856.14
2018-06-28T06:18:56.424Z,856.08
2018-06-28T06:19:56.303Z,856.09
2018-06-28T06:20:56.180Z,856.08
2018-06-28T06:21:56.055Z,856.09
2018-06-28T06:22:55.931Z,856.07
2018-06-28T06:23:55.807Z,856.06
2018-06-28T06:24:55.687Z,856.07
2018-06-28T06:25:55.561Z,856.07
2018-06-28T06:26:55.437Z,856.06
2018-06-28T06:27:55.324Z,856.08
2018-06-28T06:28:55.191Z,856.08
2018-06-28T06:29:55.069Z,856.11
2018-06-28T06:30:54.943Z,856.12
2018-06-28T06:31:54.826Z,856.10
2018-06-28T06:32:54.694Z,856.11
2018-06-28T06:33:54.571Z,856.09
2018-06-28T06:34:54.445Z,856.11
2018-06-28T06:35:54.321Z,856.07
2018-06-28T06:36:54.199Z,856.12
2018-06-28T06:37:54.081Z,856.11
2018-06-28T06:38:53.951Z,856.10
2018-06-28T06:39:53.828Z,856.05
2018-06-28T06:40:53.705Z,856.06
2018-06-28T06:41:53.589Z,856.07
2018-06-28T06:42:53.463Z,856.09
2018-06-28T06:43:53.334Z,856.09
2018-06-28T06:44:53.213Z,856.11
2018-06-28T06:45:53.088Z,856.10
2018-06-28T06:46:52.966Z,856.12
2018-06-28T06:47:52.844Z,856.12
2018-06-28T06:48:52.720Z,856.08
2018-06-28T06:49:52.594Z,856.10
2018-06-28T06:50:52.611Z,856.08
2018-06-28T06:51:52.348Z,856.07
2018-06-28T06:52:52.261Z,856.08
2018-06-28T06:53:52.103Z,856.05
2018-06-28T06:54:51.979Z,856.07
2018-06-28T06:55:51.854Z,856.09
2018-06-28T06:56:51.731Z,856.07
2018-06-28T06:57:51.621Z,856.07
2018-06-28T06:58:51.486Z,856.07
2018-06-28T06:59:51.362Z,856.08
2018-06-28T07:00:51.238Z,856.07
2018-06-28T07:01:51.119Z,856.05
2018-06-28T07:02:50.992Z,856.04
2018-06-28T07:03:50.869Z,856.07
2018-06-28T07:04:50.745Z,856.07
2018-06-28T07:05:50.624Z,856.06
2018-06-28T07:06:52.499Z,856.06
2018-06-28T07:07:50.376Z,856.04
2018-06-28T07:08:50.267Z,856.08
2018-06-28T07:09:50.129Z,856.03
2018-06-28T07:10:50.009Z,856.01
2018-06-28T07:11:49.882Z,856.01
2018-06-28T07:12:49.764Z,856.02
2018-06-28T07:13:49.639Z,856.03
2018-06-28T07:14:49.513Z,856.04
2018-06-28T07:15:49.395Z,856.05
2018-06-28T07:16:49.271Z,856.06
2018-06-28T07:17:49.146Z,856.02
2018-06-28T07:18:49.023Z,856.07
2018-06-28T07:19:48.898Z,856.04
2018-06-28T07:20:48.776Z,856.08
2018-06-28T07:21:48.655Z,856.06
2018-06-28T07:22:48.553Z,856.02
2018-06-28T07:23:48.406Z,856.04
2018-06-28T07:24:48.287Z,856.04
2018-06-28T07:25:48.166Z,856.07
2018-06-28T07:26:48.040Z,856.04
2018-06-28T07:27:47.919Z,856.02
2018-06-28T07:28:47.794Z,856.01
2018-06-28T07:29:47.673Z,855.99
2018-06-28T07:30:47.554Z,855.95
2018-06-28T07:31:47.427Z,855.97
2018-06-28T07:32:47.305Z,855.97
2018-06-28T07:33:47.188Z,855.96
2018-06-28T07:34:47.060Z,855.98
2018-06-28T07:35:46.940Z,855.95
2018-06-28T07:36:46.817Z,855.96
2018-06-28T07:37:46.695Z,855.94
2018-06-28T07:38:46.570Z,856.01
2018-06-28T07:39:46.451Z,855.97
2018-06-28T07:40:46.326Z,855.95
2018-06-28T07:41:46.205Z,855.89
2018-06-28T07:42:46.082Z,855.94
2018-06-28T07:43:45.960Z,855.84
2018-06-28T07:44:45.840Z,855.89
2018-06-28T07:45:45.717Z,855.92
2018-06-28T07:46:45.622Z,855.91
2018-06-28T07:47:45.471Z,855.92
2018-06-28T07:48:45.348Z,855.93
2018-06-28T07:49:45.225Z,855.88
2018-06-28T07:50:45.103Z,855.84
2018-06-28T07:51:44.983Z,855.89
2018-06-28T07:52:44.860Z,855.87
2018-06-28T07:53:44.739Z,855.86
2018-06-28T07:54:44.614Z,855.84
2018-06-28T07:55:44.497Z,855.85
2018-06-28T07:56:44.374Z,855.82
2018-06-28T07:57:44.250Z,855.83
2018-06-28T07:58:44.132Z,855.85
2018-06-28T07:59:44.005Z,855.84
2018-06-28T08:00:43.886Z,855.86
2018-06-28T08:01:43.763Z,855.83
2018-06-28T08:02:43.696Z,855.84
2018-06-28T08:03:43.520Z,855.84
2018-06-28T08:04:43.401Z,855.85
2018-06-28T08:05:43.275Z,855.85
2018-06-28T08:06:43.154Z,855.82
2018-06-28T08:07:43.033Z,855.74
2018-06-28T08:08:42.916Z,855.79
2018-06-28T08:09:42.854Z,855.74
2018-06-28T08:10:42.669Z,855.79
2018-06-28T08:11:42.548Z,855.74
2018-06-28T08:12:42.425Z,855.75
2018-06-28T08:13:42.302Z,855.70
2018-06-28T08:14:42.188Z,855.76
2018-06-28T08:15:42.063Z,855.71
2018-06-28T08:16:41.939Z,855.73
2018-06-28T08:17:41.816Z,855.71
2018-06-28T08:18:41.694Z,855.68
2018-06-28T08:19:41.576Z,855.70
2018-06-28T08:20:41.451Z,855.70
2018-06-28T08:21:41.334Z,855.70
2018-06-28T08:22:41.209Z,855.66
2018-06-28T08:23:41.088Z,855.67
2018-06-28T08:24:40.967Z,855.63
2018-06-28T08:25:40.844Z,855.61
2018-06-28T08:26:40.723Z,855.65
2018-06-28T08:27:40.602Z,855.64
2018-06-28T08:28:40.480Z,855.61
2018-06-28T08:29:40.363Z,855.64
2018-06-28T08:30:40.237Z,855.63
2018-06-28T08:31:40.114Z,855.61
2018-06-28T08:32:39.994Z,855.65
2018-06-28T08:33:39.874Z,855.62
2018-06-28T08:34:39.751Z,855.64
2018-06-28T08:35:39.629Z,855.65
2018-06-28T08:36:39.509Z,855.63
2018-06-28T08:37:39.385Z,855.60
2018-06-28T08:38:39.266Z,855.61
2018-06-28T08:39:39.145Z,855.61
2018-06-28T08:40:39.022Z,855.55
2018-06-28T08:41:38.900Z,855.55
2018-06-28T08:42:38.776Z,855.56
2018-06-28T08:43:38.655Z,855.52
2018-06-28T08:44:38.532Z,855.51
2018-06-28T08:45:38.412Z,855.53
2018-06-28T08:46:38.290Z,855.52
2018-06-28T08:47:38.168Z,855.54
2018-06-28T08:48:38.046Z,855.52
2018-06-28T08:49:37.925Z,855.53
2018-06-28T08:50:37.801Z,855.58
2018-06-28T08:51:37.684Z,855.55
2018-06-28T08:52:37.563Z,855.57
2018-06-28T08:53:37.440Z,855.53
2018-06-28T08:54:37.319Z,855.55
2018-06-28T08:55:37.198Z,855.54
2018-06-28T08:56:37.077Z,855.49
2018-06-28T08:57:37.030Z,855.52
2018-06-28T08:58:36.832Z,855.50
2018-06-28T08:59:36.714Z,855.49
2018-06-28T09:00:36.590Z,855.47
2018-06-28T09:01:36.469Z,855.51
2018-06-28T09:02:36.351Z,855.50
2018-06-28T09:03:36.228Z,855.54
2018-06-28T09:04:36.106Z,855.49
2018-06-28T09:05:35.986Z,855.53
2018-06-28T09:06:35.863Z,855.50
2018-06-28T09:07:35.746Z,855.47
2018-06-28T09:08:35.625Z,855.47
2018-06-28T09:09:35.503Z,855.49
2018-06-28T09:10:35.381Z,855.51
2018-06-28T09:11:35.260Z,855.49
2018-06-28T09:12:35.140Z,855.48
2018-06-28T09:13:35.021Z,855.48
2018-06-28T09:14:34.898Z,855.48
2018-06-28T09:15:34.779Z,855.45
2018-06-28T09:16:34.658Z,855.50
2018-06-28T09:17:34.538Z,855.49
2018-06-28T09:18:34.420Z,855.45
2018-06-28T09:19:34.298Z,855.46
2018-06-28T09:20:34.175Z,855.44
2018-06-28T09:21:34.057Z,855.40
2018-06-28T09:22:33.980Z,855.44
2018-06-28T09:23:33.819Z,855.39
2018-06-28T09:24:33.695Z,855.38
2018-06-28T09:25:33.574Z,855.40
2018-06-28T09:26:33.453Z,855.37
2018-06-28T09:27:33.337Z,855.42
2018-06-28T09:28:33.214Z,855.40
2018-06-28T09:29:33.094Z,855.38
2018-06-28T09:30:32.972Z,855.38
2018-06-28T09:31:32.852Z,855.36
2018-06-28T09:32:32.732Z,855.35
2018-06-28T09:33:32.612Z,855.35
2018-06-28T09:34:32.493Z,855.40
2018-06-28T09:35:32.370Z,855.38
2018-06-28T09:36:32.249Z,855.37
2018-06-28T09:37:32.129Z,855.40
2018-06-28T09:38:32.011Z,855.36
2018-06-28T09:39:31.890Z,855.38
2018-06-28T09:40:31.769Z,855.39
2018-06-28T09:41:31.649Z,855.39
2018-06-28T09:42:31.528Z,855.41
2018-06-28T09:43:31.410Z,855.41
2018-06-28T09:44:31.289Z,855.42
2018-06-28T09:45:31.169Z,855.41
2018-06-28T09:46:31.049Z,855.41
2018-06-28T09:47:30.930Z,855.39
2018-06-28T09:48:30.810Z,855.40
2018-06-28T09:49:30.688Z,855.39
2018-06-28T09:50:30.564Z,855.39
2018-06-28T09:51:30.451Z,855.38
2018-06-28T09:52:30.327Z,855.38
2018-06-28T09:53:30.210Z,855.41
2018-06-28T09:54:30.085Z,855.36
2018-06-28T09:55:29.967Z,855.31
2018-06-28T09:56:29.844Z,855.31
2018-06-28T09:57:29.723Z,855.31
2018-06-28T09:58:29.605Z,855.36
2018-06-28T09:59:29.484Z,855.37
2018-06-28T10:00:29.449Z,855.38
2018-06-28T10:01:29.246Z,855.38
2018-06-28T10:02:29.127Z,855.36
2018-06-28T10:03:29.003Z,855.41
2018-06-28T10:04:28.884Z,855.40
2018-06-28T10:05:28.768Z,855.39
2018-06-28T10:06:28.645Z,855.39
2018-06-28T10:07:28.525Z,855.40
2018-06-28T10:08:28.404Z,855.39
2018-06-28T10:09:28.283Z,855.39
2018-06-28T10:10:28.165Z,855.32
2018-06-28T10:11:28.046Z,855.33
2018-06-28T10:12:27.924Z,855.29
2018-06-28T10:13:27.804Z,855.28
2018-06-28T10:14:27.684Z,855.32
2018-06-28T10:15:27.563Z,855.33
2018-06-28T10:16:27.442Z,855.35
2018-06-28T10:17:27.324Z,855.33
2018-06-28T10:18:27.203Z,855.32
2018-06-28T10:19:27.086Z,855.31
2018-06-28T10:20:26.962Z,855.34
2018-06-28T10:21:26.843Z,855.32
2018-06-28T10:22:26.720Z,855.31
2018-06-28T10:23:26.604Z,855.30
2018-06-28T10:24:26.482Z,855.31
2018-06-28T10:25:26.362Z,855.29
2018-06-28T10:26:26.242Z,855.29
2018-06-28T10:27:26.124Z,855.32
2018-06-28T10:28:26.003Z,855.31
2018-06-28T10:29:25.884Z,855.30
2018-06-28T10:30:25.765Z,855.32
2018-06-28T10:31:25.683Z,855.28
2018-06-28T10:32:25.522Z,855.35
2018-06-28T10:33:25.402Z,855.34
2018-06-28T10:34:25.281Z,855.32
2018-06-28T10:35:25.162Z,855.30
2018-06-28T10:36:25.044Z,855.34
2018-06-28T10:37:24.930Z,855.37
2018-06-28T10:38:24.800Z,855.36
2018-06-28T10:39:24.681Z,855.38
2018-06-28T10:40:24.560Z,855.35
2018-06-28T10:41:24.440Z,855.36
2018-06-28T10:42:24.319Z,855.34
2018-06-28T10:43:24.199Z,855.35
2018-06-28T10:44:24.081Z,855.31
2018-06-28T10:45:23.961Z,855.34
2018-06-28T10:46:23.840Z,855.33
2018-06-28T10:47:23.720Z,855.33
2018-06-28T10:48:23.602Z,855.35
2018-06-28T10:49:23.478Z,855.34
2018-06-28T10:50:23.387Z,855.32
2018-06-28T10:51:23.236Z,855.33
2018-06-28T10:52:23.115Z,855.41
2018-06-28T10:53:22.999Z,855.40
2018-06-28T10:54:22.876Z,855.38
2018-06-28T10:55:22.756Z,855.39
2018-06-28T10:56:22.644Z,855.39
2018-06-28T10:57:22.515Z,855.35
2018-06-28T10:58:22.395Z,855.37
2018-06-28T10:59:22.277Z,855.38
2018-06-28T11:00:22.153Z,855.37
2018-06-28T11:01:22.039Z,855.36
2018-06-28T11:02:21.914Z,855.32
2018-06-28T11:03:21.794Z,855.34
2018-06-28T11:04:21.673Z,855.31
2018-06-28T11:05:21.555Z,855.27
2018-06-28T11:06:21.435Z,855.31
2018-06-28T11:07:21.345Z,855.26
2018-06-28T11:08:21.205Z,855.23
2018-06-28T11:09:21.077Z,855.24
2018-06-28T11:10:20.953Z,855.19
2018-06-28T11:11:20.856Z,855.23
2018-06-28T11:12:20.713Z,855.17
2018-06-28T11:13:20.595Z,855.20
2018-06-28T11:14:20.474Z,855.19
2018-06-28T11:15:20.355Z,855.19
2018-06-28T11:16:20.236Z,855.16
2018-06-28T11:17:20.118Z,855.14
2018-06-28T11:18:20.000Z,855.09
2018-06-28T11:19:19.876Z,855.13
2018-06-28T11:20:19.759Z,855.11
2018-06-28T11:21:19.640Z,855.13
2018-06-28T11:22:19.519Z,855.11
2018-06-28T11:23:19.399Z,855.10
2018-06-28T11:24:19.294Z,855.08
2018-06-28T11:25:19.161Z,855.12
2018-06-28T11:26:19.039Z,855.09
2018-06-28T11:27:18.920Z,855.07
2018-06-28T11:28:18.804Z,855.10
2018-06-28T11:29:18.684Z,855.07
2018-06-28T11:30:18.563Z,855.04
2018-06-28T11:31:18.445Z,855.01
2018-06-28T11:32:18.326Z,855.03
2018-06-28T11:33:18.203Z,854.98
2018-06-28T11:34:18.087Z,855.01
2018-06-28T11:35:17.968Z,854.97
2018-06-28T11:36:17.861Z,854.95
2018-06-28T11:37:17.729Z,854.94
2018-06-28T11:38:17.608Z,854.98
2018-06-28T11:39:17.490Z,854.95
2018-06-28T11:40:17.401Z,854.97
2018-06-28T11:41:17.255Z,854.92
2018-06-28T11:42:17.134Z,854.90
2018-06-28T11:43:17.026Z,854.91
2018-06-28T11:44:16.899Z,854.93
2018-06-28T11:45:16.779Z,854.92
2018-06-28T11:46:16.660Z,854.87
2018-06-28T11:47:16.544Z,854.90
2018-06-28T11:48:16.419Z,854.89
2018-06-28T11:49:16.301Z,854.90
2018-06-28T11:50:16.183Z,854.88
2018-06-28T11:51:16.062Z,854.89
2018-06-28T11:52:15.974Z,854.90
2018-06-28T11:53:15.825Z,854.92
2018-06-28T11:54:15.706Z,854.93
2018-06-28T11:55:15.588Z,854.88
2018-06-28T11:56:15.488Z,854.90
2018-06-28T11:57:15.352Z,854.88
2018-06-28T11:58:15.233Z,854.86
2018-06-28T11:59:15.111Z,854.83
2018-06-28T12:00:14.996Z,854.83
2018-06-28T12:01:14.876Z,854.79
2018-06-28T12:02:14.760Z,854.87
2018-06-28T12:03:14.636Z,854.84
2018-06-28T12:04:14.521Z,854.89
2018-06-28T12:05:14.433Z,854.84
2018-06-28T12:06:14.280Z,854.87
2018-06-28T12:07:14.167Z,854.83
2018-06-28T12:08:14.044Z,854.85
2018-06-28T12:09:13.924Z,854.83
2018-06-28T12:10:13.805Z,854.85
2018-06-28T12:11:13.685Z,854.87
2018-06-28T12:12:13.565Z,854.88
2018-06-28T12:13:13.449Z,854.86
2018-06-28T12:14:13.326Z,854.90
2018-06-28T12:15:13.207Z,854.90
2018-06-28T12:16:13.090Z,854.87
2018-06-28T12:17:12.969Z,854.90
2018-06-28T12:18:12.849Z,854.88
2018-06-28T12:19:12.728Z,854.88
2018-06-28T12:20:12.610Z,854.86
2018-06-28T12:21:12.491Z,854.84
2018-06-28T12:22:12.369Z,854.89
2018-06-28T12:23:12.251Z,854.85
2018-06-28T12:24:12.131Z,854.85
2018-06-28T12:25:12.015Z,854.85
2018-06-28T12:26:11.891Z,854.86
2018-06-28T12:27:11.769Z,854.85